sensor_id;sensor_type;location;lat;lon;timestamp;temperature;humidity
306;DHT22;137;48.578;9.180;2022-11-20T00:00:21;5.30;98.20
306;DHT22;137;48.578;9.180;2022-11-20T00:02:50;5.30;98.20
306;DHT22;137;48.578;9.180;2022-11-20T00:05:17;5.30;98.20
306;DHT22;137;48.578;9.180;2022-11-20T00:07:45;5.20;98.20
306;DHT22;137;48.578;9.180;2022-11-20T00:10:12;5.20;98.20
306;DHT22;137;48.578;9.180;2022-11-20T00:12:43;5.20;98.20
306;DHT22;137;48.578;9.180;2022-11-20T00:15:13;5.10;98.20
306;DHT22;137;48.578;9.180;2022-11-20T00:17:41;5.10;98.20
306;DHT22;137;48.578;9.180;2022-11-20T00:20:08;5.00;98.20
306;DHT22;137;48.578;9.180;2022-11-20T00:22:37;5.00;98.20
306;DHT22;137;48.578;9.180;2022-11-20T00:25:04;5.00;98.20
306;DHT22;137;48.578;9.180;2022-11-20T00:27:31;5.00;98.20
306;DHT22;137;48.578;9.180;2022-11-20T00:29:58;4.90;98.20
306;DHT22;137;48.578;9.180;2022-11-20T00:32:27;4.90;98.20
306;DHT22;137;48.578;9.180;2022-11-20T00:34:55;4.90;98.20
306;DHT22;137;48.578;9.180;2022-11-20T00:37:36;4.90;98.20
306;DHT22;137;48.578;9.180;2022-11-20T00:40:05;4.90;98.20
306;DHT22;137;48.578;9.180;2022-11-20T00:42:32;5.00;98.20
306;DHT22;137;48.578;9.180;2022-11-20T00:44:59;5.00;98.20
306;DHT22;137;48.578;9.180;2022-11-20T00:47:28;4.90;98.20
306;DHT22;137;48.578;9.180;2022-11-20T00:49:56;4.80;98.20
306;DHT22;137;48.578;9.180;2022-11-20T00:52:23;4.80;98.20
306;DHT22;137;48.578;9.180;2022-11-20T00:54:52;4.80;98.20
306;DHT22;137;48.578;9.180;2022-11-20T00:57:20;4.70;98.20
306;DHT22;137;48.578;9.180;2022-11-20T00:59:47;4.70;98.20
306;DHT22;137;48.578;9.180;2022-11-20T01:02:13;4.70;98.20
306;DHT22;137;48.578;9.180;2022-11-20T01:04:43;4.60;98.20
306;DHT22;137;48.578;9.180;2022-11-20T01:07:10;4.60;98.20
306;DHT22;137;48.578;9.180;2022-11-20T01:09:37;4.50;98.20
306;DHT22;137;48.578;9.180;2022-11-20T01:12:04;4.50;98.20
306;DHT22;137;48.578;9.180;2022-11-20T01:14:31;4.40;98.20
306;DHT22;137;48.578;9.180;2022-11-20T01:16:58;4.40;98.20
306;DHT22;137;48.578;9.180;2022-11-20T01:19:25;4.30;98.20
306;DHT22;137;48.578;9.180;2022-11-20T01:21:54;4.30;98.20
306;DHT22;137;48.578;9.180;2022-11-20T01:24:21;4.20;98.20
306;DHT22;137;48.578;9.180;2022-11-20T01:26:50;4.10;98.20
306;DHT22;137;48.578;9.180;2022-11-20T01:29:19;4.00;98.20
306;DHT22;137;48.578;9.180;2022-11-20T01:31:46;4.00;98.20
306;DHT22;137;48.578;9.180;2022-11-20T01:34:15;4.00;98.20
306;DHT22;137;48.578;9.180;2022-11-20T01:36:43;3.90;98.20
306;DHT22;137;48.578;9.180;2022-11-20T01:39:13;3.90;98.20
306;DHT22;137;48.578;9.180;2022-11-20T01:41:41;3.80;98.20
306;DHT22;137;48.578;9.180;2022-11-20T01:47:34;3.70;98.20
306;DHT22;137;48.578;9.180;2022-11-20T01:50:05;3.70;98.20
306;DHT22;137;48.578;9.180;2022-11-20T01:52:38;3.70;98.20
306;DHT22;137;48.578;9.180;2022-11-20T01:55:13;3.70;98.20
306;DHT22;137;48.578;9.180;2022-11-20T01:57:41;3.70;98.20
306;DHT22;137;48.578;9.180;2022-11-20T02:00:13;3.70;98.20
306;DHT22;137;48.578;9.180;2022-11-20T02:02:42;3.70;98.20
306;DHT22;137;48.578;9.180;2022-11-20T02:05:16;3.70;98.20
306;DHT22;137;48.578;9.180;2022-11-20T02:07:45;3.60;98.20
306;DHT22;137;48.578;9.180;2022-11-20T02:10:14;3.50;98.20
306;DHT22;137;48.578;9.180;2022-11-20T02:12:41;3.50;98.20
306;DHT22;137;48.578;9.180;2022-11-20T02:15:25;3.40;98.20
306;DHT22;137;48.578;9.180;2022-11-20T02:17:53;3.30;98.20
306;DHT22;137;48.578;9.180;2022-11-20T02:20:20;3.30;98.20
306;DHT22;137;48.578;9.180;2022-11-20T02:22:53;3.30;98.20
306;DHT22;137;48.578;9.180;2022-11-20T02:25:24;3.30;98.20
306;DHT22;137;48.578;9.180;2022-11-20T02:27:52;3.30;98.20
306;DHT22;137;48.578;9.180;2022-11-20T02:30:19;3.20;98.20
306;DHT22;137;48.578;9.180;2022-11-20T02:32:46;3.20;98.20
306;DHT22;137;48.578;9.180;2022-11-20T02:35:40;3.20;98.20
306;DHT22;137;48.578;9.180;2022-11-20T02:38:08;3.20;98.20
306;DHT22;137;48.578;9.180;2022-11-20T02:40:36;3.30;98.20
306;DHT22;137;48.578;9.180;2022-11-20T02:43:03;3.40;98.20
306;DHT22;137;48.578;9.180;2022-11-20T02:45:30;3.40;98.20
306;DHT22;137;48.578;9.180;2022-11-20T02:47:57;3.40;98.20
306;DHT22;137;48.578;9.180;2022-11-20T02:50:24;3.50;98.20
306;DHT22;137;48.578;9.180;2022-11-20T02:52:51;3.50;98.20
306;DHT22;137;48.578;9.180;2022-11-20T02:55:18;3.50;98.20
306;DHT22;137;48.578;9.180;2022-11-20T02:57:47;3.60;98.20
306;DHT22;137;48.578;9.180;2022-11-20T03:00:14;3.60;98.20
306;DHT22;137;48.578;9.180;2022-11-20T03:02:41;3.70;98.20
306;DHT22;137;48.578;9.180;2022-11-20T03:05:08;3.70;98.20
306;DHT22;137;48.578;9.180;2022-11-20T03:07:35;3.80;98.20
306;DHT22;137;48.578;9.180;2022-11-20T03:10:02;3.80;98.20
306;DHT22;137;48.578;9.180;2022-11-20T03:12:29;3.90;98.20
306;DHT22;137;48.578;9.180;2022-11-20T03:14:57;3.80;98.20
306;DHT22;137;48.578;9.180;2022-11-20T03:17:24;3.80;98.20
306;DHT22;137;48.578;9.180;2022-11-20T03:19:51;3.90;98.20
306;DHT22;137;48.578;9.180;2022-11-20T03:22:17;3.90;98.20
306;DHT22;137;48.578;9.180;2022-11-20T03:24:44;4.00;98.20
306;DHT22;137;48.578;9.180;2022-11-20T03:27:11;4.00;98.20
306;DHT22;137;48.578;9.180;2022-11-20T03:29:38;4.10;98.20
306;DHT22;137;48.578;9.180;2022-11-20T03:32:06;4.00;98.20
306;DHT22;137;48.578;9.180;2022-11-20T03:34:33;4.10;98.20
306;DHT22;137;48.578;9.180;2022-11-20T03:37:00;4.10;98.20
306;DHT22;137;48.578;9.180;2022-11-20T03:39:27;4.10;98.20
306;DHT22;137;48.578;9.180;2022-11-20T03:41:54;4.10;98.20
306;DHT22;137;48.578;9.180;2022-11-20T03:44:21;4.10;98.20
306;DHT22;137;48.578;9.180;2022-11-20T03:46:48;4.20;98.20
306;DHT22;137;48.578;9.180;2022-11-20T03:49:16;4.20;98.20
306;DHT22;137;48.578;9.180;2022-11-20T03:51:43;4.30;98.20
306;DHT22;137;48.578;9.180;2022-11-20T03:54:09;4.40;98.20
306;DHT22;137;48.578;9.180;2022-11-20T03:56:38;4.40;98.20
306;DHT22;137;48.578;9.180;2022-11-20T03:59:05;4.50;98.20
306;DHT22;137;48.578;9.180;2022-11-20T04:01:34;4.70;98.20
306;DHT22;137;48.578;9.180;2022-11-20T04:04:01;4.80;98.20
306;DHT22;137;48.578;9.180;2022-11-20T04:06:34;4.80;98.20
306;DHT22;137;48.578;9.180;2022-11-20T04:09:01;4.80;98.20
306;DHT22;137;48.578;9.180;2022-11-20T04:11:31;4.70;98.20
306;DHT22;137;48.578;9.180;2022-11-20T04:13:59;4.60;98.20
306;DHT22;137;48.578;9.180;2022-11-20T04:16:29;4.70;98.20
306;DHT22;137;48.578;9.180;2022-11-20T04:19:00;4.70;98.20
306;DHT22;137;48.578;9.180;2022-11-20T04:21:29;4.80;98.20
306;DHT22;137;48.578;9.180;2022-11-20T04:23:56;4.90;98.20
306;DHT22;137;48.578;9.180;2022-11-20T04:26:24;4.90;98.20
306;DHT22;137;48.578;9.180;2022-11-20T04:28:52;5.00;98.20
306;DHT22;137;48.578;9.180;2022-11-20T04:31:20;5.00;98.20
306;DHT22;137;48.578;9.180;2022-11-20T04:33:48;5.00;98.20
306;DHT22;137;48.578;9.180;2022-11-20T04:36:16;5.10;98.20
306;DHT22;137;48.578;9.180;2022-11-20T04:38:45;5.10;98.20
306;DHT22;137;48.578;9.180;2022-11-20T04:41:16;5.10;98.20
306;DHT22;137;48.578;9.180;2022-11-20T04:43:46;5.00;98.20
306;DHT22;137;48.578;9.180;2022-11-20T04:46:14;5.10;98.20
306;DHT22;137;48.578;9.180;2022-11-20T04:48:41;5.20;98.20
306;DHT22;137;48.578;9.180;2022-11-20T04:51:08;5.10;98.20
306;DHT22;137;48.578;9.180;2022-11-20T04:53:34;5.10;98.20
306;DHT22;137;48.578;9.180;2022-11-20T04:56:04;5.20;98.20
306;DHT22;137;48.578;9.180;2022-11-20T04:58:31;5.20;98.20
306;DHT22;137;48.578;9.180;2022-11-20T05:01:02;5.20;98.20
306;DHT22;137;48.578;9.180;2022-11-20T05:03:29;5.20;98.20
306;DHT22;137;48.578;9.180;2022-11-20T05:05:59;5.20;98.20
306;DHT22;137;48.578;9.180;2022-11-20T05:08:26;5.20;98.20
306;DHT22;137;48.578;9.180;2022-11-20T05:10:53;5.20;98.20
306;DHT22;137;48.578;9.180;2022-11-20T05:13:21;5.20;98.20
306;DHT22;137;48.578;9.180;2022-11-20T05:15:48;5.20;98.20
306;DHT22;137;48.578;9.180;2022-11-20T05:18:15;5.20;98.20
306;DHT22;137;48.578;9.180;2022-11-20T05:20:42;5.30;98.20
306;DHT22;137;48.578;9.180;2022-11-20T05:23:09;5.30;98.20
306;DHT22;137;48.578;9.180;2022-11-20T05:25:36;5.30;98.20
306;DHT22;137;48.578;9.180;2022-11-20T05:28:03;5.30;98.20
306;DHT22;137;48.578;9.180;2022-11-20T05:30:31;5.40;98.20
306;DHT22;137;48.578;9.180;2022-11-20T05:32:58;5.40;98.20
306;DHT22;137;48.578;9.180;2022-11-20T05:35:25;5.40;98.20
306;DHT22;137;48.578;9.180;2022-11-20T05:37:52;5.40;98.20
306;DHT22;137;48.578;9.180;2022-11-20T05:40:19;5.40;98.20
306;DHT22;137;48.578;9.180;2022-11-20T05:42:46;5.40;98.20
306;DHT22;137;48.578;9.180;2022-11-20T05:45:12;5.40;98.20
306;DHT22;137;48.578;9.180;2022-11-20T05:47:41;5.40;98.20
306;DHT22;137;48.578;9.180;2022-11-20T05:50:08;5.50;98.20
306;DHT22;137;48.578;9.180;2022-11-20T05:52:35;5.50;98.20
306;DHT22;137;48.578;9.180;2022-11-20T05:55:02;5.50;98.20
306;DHT22;137;48.578;9.180;2022-11-20T05:57:28;5.40;98.20
306;DHT22;137;48.578;9.180;2022-11-20T05:59:55;5.30;98.20
306;DHT22;137;48.578;9.180;2022-11-20T06:02:22;5.30;98.20
306;DHT22;137;48.578;9.180;2022-11-20T06:04:50;5.20;98.20
306;DHT22;137;48.578;9.180;2022-11-20T06:07:17;5.20;98.20
306;DHT22;137;48.578;9.180;2022-11-20T06:09:44;5.20;98.20
306;DHT22;137;48.578;9.180;2022-11-20T06:12:11;5.20;98.20
306;DHT22;137;48.578;9.180;2022-11-20T06:14:38;5.20;98.20
306;DHT22;137;48.578;9.180;2022-11-20T06:17:04;5.20;98.20
306;DHT22;137;48.578;9.180;2022-11-20T06:19:31;5.20;98.20
306;DHT22;137;48.578;9.180;2022-11-20T06:21:59;5.30;98.20
306;DHT22;137;48.578;9.180;2022-11-20T06:24:26;5.20;98.20
306;DHT22;137;48.578;9.180;2022-11-20T06:26:53;5.30;98.20
306;DHT22;137;48.578;9.180;2022-11-20T06:29:20;5.30;98.20
306;DHT22;137;48.578;9.180;2022-11-20T06:31:47;5.30;98.20
306;DHT22;137;48.578;9.180;2022-11-20T06:34:13;5.30;98.20
306;DHT22;137;48.578;9.180;2022-11-20T06:36:40;5.40;98.20
306;DHT22;137;48.578;9.180;2022-11-20T06:39:09;5.30;98.20
306;DHT22;137;48.578;9.180;2022-11-20T06:41:35;5.40;98.20
306;DHT22;137;48.578;9.180;2022-11-20T06:44:04;5.40;98.20
306;DHT22;137;48.578;9.180;2022-11-20T06:46:30;5.40;98.20
306;DHT22;137;48.578;9.180;2022-11-20T06:48:58;5.40;98.20
306;DHT22;137;48.578;9.180;2022-11-20T06:51:25;5.30;98.20
306;DHT22;137;48.578;9.180;2022-11-20T06:53:52;5.40;98.20
306;DHT22;137;48.578;9.180;2022-11-20T06:56:20;5.40;98.20
306;DHT22;137;48.578;9.180;2022-11-20T06:58:47;5.40;98.20
306;DHT22;137;48.578;9.180;2022-11-20T07:01:15;5.40;98.20
306;DHT22;137;48.578;9.180;2022-11-20T07:03:42;5.40;98.20
306;DHT22;137;48.578;9.180;2022-11-20T07:06:09;5.40;98.20
306;DHT22;137;48.578;9.180;2022-11-20T07:08:36;5.40;98.20
306;DHT22;137;48.578;9.180;2022-11-20T07:11:05;5.40;98.20
306;DHT22;137;48.578;9.180;2022-11-20T07:13:34;5.40;98.20
306;DHT22;137;48.578;9.180;2022-11-20T07:16:22;5.40;98.20
306;DHT22;137;48.578;9.180;2022-11-20T07:19:33;5.50;98.20
306;DHT22;137;48.578;9.180;2022-11-20T07:22:00;5.50;98.20
306;DHT22;137;48.578;9.180;2022-11-20T07:24:27;5.60;98.20
306;DHT22;137;48.578;9.180;2022-11-20T07:26:54;5.60;98.20
306;DHT22;137;48.578;9.180;2022-11-20T07:29:22;5.60;98.20
306;DHT22;137;48.578;9.180;2022-11-20T07:31:49;5.60;98.20
306;DHT22;137;48.578;9.180;2022-11-20T07:34:16;5.70;98.20
306;DHT22;137;48.578;9.180;2022-11-20T07:36:43;5.80;98.20
306;DHT22;137;48.578;9.180;2022-11-20T07:39:10;5.80;98.20
306;DHT22;137;48.578;9.180;2022-11-20T07:41:37;5.70;98.20
306;DHT22;137;48.578;9.180;2022-11-20T07:44:04;5.70;98.20
306;DHT22;137;48.578;9.180;2022-11-20T07:46:32;5.70;98.20
306;DHT22;137;48.578;9.180;2022-11-20T07:48:59;5.80;98.20
306;DHT22;137;48.578;9.180;2022-11-20T07:51:26;5.80;98.20
306;DHT22;137;48.578;9.180;2022-11-20T07:53:57;6.00;98.20
306;DHT22;137;48.578;9.180;2022-11-20T07:56:24;6.20;98.20
306;DHT22;137;48.578;9.180;2022-11-20T07:58:50;6.20;98.20
306;DHT22;137;48.578;9.180;2022-11-20T08:01:17;6.40;98.20
306;DHT22;137;48.578;9.180;2022-11-20T08:03:46;6.40;98.20
306;DHT22;137;48.578;9.180;2022-11-20T08:06:12;6.40;98.20
306;DHT22;137;48.578;9.180;2022-11-20T08:08:40;6.50;98.20
306;DHT22;137;48.578;9.180;2022-11-20T08:11:07;6.60;98.20
306;DHT22;137;48.578;9.180;2022-11-20T08:13:51;6.60;98.20
306;DHT22;137;48.578;9.180;2022-11-20T08:16:35;6.60;98.20
306;DHT22;137;48.578;9.180;2022-11-20T08:19:03;6.70;98.20
306;DHT22;137;48.578;9.180;2022-11-20T08:21:33;6.70;98.20
306;DHT22;137;48.578;9.180;2022-11-20T08:24:00;6.60;98.20
306;DHT22;137;48.578;9.180;2022-11-20T08:26:27;6.60;98.20
306;DHT22;137;48.578;9.180;2022-11-20T08:28:55;6.60;98.20
306;DHT22;137;48.578;9.180;2022-11-20T08:31:26;6.60;98.20
306;DHT22;137;48.578;9.180;2022-11-20T08:33:56;6.50;98.20
306;DHT22;137;48.578;9.180;2022-11-20T08:36:25;6.50;98.20
306;DHT22;137;48.578;9.180;2022-11-20T08:38:53;6.60;98.20
306;DHT22;137;48.578;9.180;2022-11-20T08:41:20;6.60;98.20
306;DHT22;137;48.578;9.180;2022-11-20T08:43:52;6.60;98.20
306;DHT22;137;48.578;9.180;2022-11-20T08:46:23;6.80;98.20
306;DHT22;137;48.578;9.180;2022-11-20T08:48:50;6.80;98.20
306;DHT22;137;48.578;9.180;2022-11-20T08:51:20;6.90;98.20
306;DHT22;137;48.578;9.180;2022-11-20T08:53:52;6.90;98.20
306;DHT22;137;48.578;9.180;2022-11-20T08:56:21;7.00;98.20
306;DHT22;137;48.578;9.180;2022-11-20T08:58:49;6.90;98.20
306;DHT22;137;48.578;9.180;2022-11-20T09:01:16;7.00;98.20
306;DHT22;137;48.578;9.180;2022-11-20T09:03:43;7.00;98.20
306;DHT22;137;48.578;9.180;2022-11-20T09:06:10;7.00;98.20
306;DHT22;137;48.578;9.180;2022-11-20T09:08:39;7.00;98.20
306;DHT22;137;48.578;9.180;2022-11-20T09:11:08;7.00;98.20
306;DHT22;137;48.578;9.180;2022-11-20T09:13:35;7.10;98.20
306;DHT22;137;48.578;9.180;2022-11-20T09:16:08;7.10;98.20
306;DHT22;137;48.578;9.180;2022-11-20T09:18:36;7.10;98.20
306;DHT22;137;48.578;9.180;2022-11-20T09:21:05;7.20;98.20
306;DHT22;137;48.578;9.180;2022-11-20T09:23:33;7.40;98.20
306;DHT22;137;48.578;9.180;2022-11-20T09:26:02;7.30;98.20
306;DHT22;137;48.578;9.180;2022-11-20T09:28:31;7.40;98.20
306;DHT22;137;48.578;9.180;2022-11-20T09:30:59;7.50;98.20
306;DHT22;137;48.578;9.180;2022-11-20T09:33:42;7.60;98.20
306;DHT22;137;48.578;9.180;2022-11-20T09:36:12;7.50;98.20
306;DHT22;137;48.578;9.180;2022-11-20T09:38:40;7.60;98.20
306;DHT22;137;48.578;9.180;2022-11-20T09:41:23;7.70;98.20
306;DHT22;137;48.578;9.180;2022-11-20T09:44:12;7.80;98.20
306;DHT22;137;48.578;9.180;2022-11-20T09:46:53;7.80;98.20
306;DHT22;137;48.578;9.180;2022-11-20T09:49:48;7.60;98.20
306;DHT22;137;48.578;9.180;2022-11-20T09:52:32;7.50;98.20
306;DHT22;137;48.578;9.180;2022-11-20T09:55:17;7.40;98.20
306;DHT22;137;48.578;9.180;2022-11-20T09:57:59;7.40;98.20
306;DHT22;137;48.578;9.180;2022-11-20T10:00:46;7.40;98.20
306;DHT22;137;48.578;9.180;2022-11-20T10:03:19;7.50;98.20
306;DHT22;137;48.578;9.180;2022-11-20T10:06:15;7.70;98.20
306;DHT22;137;48.578;9.180;2022-11-20T10:09:14;7.90;98.20
306;DHT22;137;48.578;9.180;2022-11-20T10:11:51;8.00;98.20
306;DHT22;137;48.578;9.180;2022-11-20T10:14:46;8.00;98.20
306;DHT22;137;48.578;9.180;2022-11-20T10:30:25;8.00;98.20
306;DHT22;137;48.578;9.180;2022-11-20T10:33:03;7.90;98.20
306;DHT22;137;48.578;9.180;2022-11-20T10:35:45;7.80;98.20
306;DHT22;137;48.578;9.180;2022-11-20T10:38:33;7.60;98.20
306;DHT22;137;48.578;9.180;2022-11-20T10:41:24;7.60;98.20
306;DHT22;137;48.578;9.180;2022-11-20T10:44:05;7.70;98.20
306;DHT22;137;48.578;9.180;2022-11-20T10:47:00;7.80;98.20
306;DHT22;137;48.578;9.180;2022-11-20T10:49:27;7.90;98.20
306;DHT22;137;48.578;9.180;2022-11-20T10:52:19;7.90;98.20
306;DHT22;137;48.578;9.180;2022-11-20T10:55:28;7.90;98.20
306;DHT22;137;48.578;9.180;2022-11-20T10:58:14;8.00;98.20
306;DHT22;137;48.578;9.180;2022-11-20T11:01:04;8.30;98.20
306;DHT22;137;48.578;9.180;2022-11-20T11:39:20;8.90;98.20
306;DHT22;137;48.578;9.180;2022-11-20T11:42:01;9.30;98.20
306;DHT22;137;48.578;9.180;2022-11-20T11:44:31;9.40;98.20
306;DHT22;137;48.578;9.180;2022-11-20T11:47:22;9.70;98.20
306;DHT22;137;48.578;9.180;2022-11-20T11:50:16;10.10;98.20
306;DHT22;137;48.578;9.180;2022-11-20T11:53:06;9.70;98.20
306;DHT22;137;48.578;9.180;2022-11-20T11:56:05;9.60;98.20
306;DHT22;137;48.578;9.180;2022-11-20T11:58:50;9.60;98.20
306;DHT22;137;48.578;9.180;2022-11-20T12:01:33;9.70;98.20
306;DHT22;137;48.578;9.180;2022-11-20T12:04:05;10.00;98.20
306;DHT22;137;48.578;9.180;2022-11-20T12:06:44;10.30;98.20
306;DHT22;137;48.578;9.180;2022-11-20T12:09:12;10.40;98.20
306;DHT22;137;48.578;9.180;2022-11-20T12:11:58;10.50;98.20
306;DHT22;137;48.578;9.180;2022-11-20T12:14:35;10.30;98.20
306;DHT22;137;48.578;9.180;2022-11-20T12:17:11;10.20;98.20
306;DHT22;137;48.578;9.180;2022-11-20T12:19:53;10.10;98.20
306;DHT22;137;48.578;9.180;2022-11-20T12:22:42;10.00;98.20
306;DHT22;137;48.578;9.180;2022-11-20T12:25:26;9.70;98.20
306;DHT22;137;48.578;9.180;2022-11-20T12:28:31;9.40;98.20
306;DHT22;137;48.578;9.180;2022-11-20T12:31:41;9.10;98.20
306;DHT22;137;48.578;9.180;2022-11-20T12:34:44;9.00;98.20
306;DHT22;137;48.578;9.180;2022-11-20T12:37:22;9.00;98.20
306;DHT22;137;48.578;9.180;2022-11-20T12:40:01;8.90;98.20
306;DHT22;137;48.578;9.180;2022-11-20T12:42:52;8.70;98.20
306;DHT22;137;48.578;9.180;2022-11-20T12:46:01;8.70;98.20
306;DHT22;137;48.578;9.180;2022-11-20T12:48:42;8.80;98.20
306;DHT22;137;48.578;9.180;2022-11-20T12:51:25;8.80;98.20
306;DHT22;137;48.578;9.180;2022-11-20T12:58:04;9.00;98.20
306;DHT22;137;48.578;9.180;2022-11-20T13:10:38;8.90;98.20
306;DHT22;137;48.578;9.180;2022-11-20T13:13:31;9.20;98.20
306;DHT22;137;48.578;9.180;2022-11-20T13:16:53;9.00;98.20
306;DHT22;137;48.578;9.180;2022-11-20T13:31:11;8.10;98.20
306;DHT22;137;48.578;9.180;2022-11-20T13:34:32;8.00;98.20
306;DHT22;137;48.578;9.180;2022-11-20T13:38:06;8.00;98.20
306;DHT22;137;48.578;9.180;2022-11-20T13:41:09;7.90;98.20
306;DHT22;137;48.578;9.180;2022-11-20T13:44:23;7.90;98.20
306;DHT22;137;48.578;9.180;2022-11-20T15:14:49;7.30;98.20
306;DHT22;137;48.578;9.180;2022-11-20T15:17:24;7.10;98.20
306;DHT22;137;48.578;9.180;2022-11-20T15:19:51;6.90;98.20
306;DHT22;137;48.578;9.180;2022-11-20T15:22:30;6.80;98.20
306;DHT22;137;48.578;9.180;2022-11-20T15:25:18;6.90;98.20
306;DHT22;137;48.578;9.180;2022-11-20T15:28:23;6.90;98.20
306;DHT22;137;48.578;9.180;2022-11-20T15:40:38;7.00;98.20
306;DHT22;137;48.578;9.180;2022-11-20T15:43:15;6.90;98.20
306;DHT22;137;48.578;9.180;2022-11-20T15:46:00;7.00;98.20
306;DHT22;137;48.578;9.180;2022-11-20T15:49:05;6.80;98.20
306;DHT22;137;48.578;9.180;2022-11-20T15:51:49;6.90;98.20
306;DHT22;137;48.578;9.180;2022-11-20T15:54:33;6.80;98.20
306;DHT22;137;48.578;9.180;2022-11-20T16:48:55;6.50;98.20
306;DHT22;137;48.578;9.180;2022-11-20T16:51:26;6.60;98.20
306;DHT22;137;48.578;9.180;2022-11-20T16:54:09;6.50;98.20
306;DHT22;137;48.578;9.180;2022-11-20T16:56:51;6.50;98.20
306;DHT22;137;48.578;9.180;2022-11-20T16:59:32;6.60;98.20
306;DHT22;137;48.578;9.180;2022-11-20T17:02:15;6.60;98.20
306;DHT22;137;48.578;9.180;2022-11-20T17:56:31;6.80;98.20
306;DHT22;137;48.578;9.180;2022-11-20T17:59:16;6.80;98.20
306;DHT22;137;48.578;9.180;2022-11-20T18:01:45;6.80;98.20
306;DHT22;137;48.578;9.180;2022-11-20T18:04:12;6.80;98.20
306;DHT22;137;48.578;9.180;2022-11-20T18:06:41;6.80;98.20
306;DHT22;137;48.578;9.180;2022-11-20T18:09:08;6.80;98.20
306;DHT22;137;48.578;9.180;2022-11-20T18:11:38;6.80;98.20
306;DHT22;137;48.578;9.180;2022-11-20T18:14:10;6.90;98.20
306;DHT22;137;48.578;9.180;2022-11-20T18:16:58;6.90;98.20
306;DHT22;137;48.578;9.180;2022-11-20T18:19:27;6.80;98.20
306;DHT22;137;48.578;9.180;2022-11-20T18:21:55;6.80;98.20
306;DHT22;137;48.578;9.180;2022-11-20T18:24:22;6.80;98.20
306;DHT22;137;48.578;9.180;2022-11-20T18:26:52;6.80;98.20
306;DHT22;137;48.578;9.180;2022-11-20T18:29:19;6.80;98.20
306;DHT22;137;48.578;9.180;2022-11-20T18:31:46;6.90;98.20
306;DHT22;137;48.578;9.180;2022-11-20T18:34:13;6.90;98.20
306;DHT22;137;48.578;9.180;2022-11-20T18:36:41;7.00;98.20
306;DHT22;137;48.578;9.180;2022-11-20T18:39:11;6.90;98.20
306;DHT22;137;48.578;9.180;2022-11-20T18:41:39;6.90;98.20
306;DHT22;137;48.578;9.180;2022-11-20T18:44:27;6.90;98.20
306;DHT22;137;48.578;9.180;2022-11-20T18:47:14;6.90;98.20
306;DHT22;137;48.578;9.180;2022-11-20T18:49:41;6.90;98.20
306;DHT22;137;48.578;9.180;2022-11-20T18:52:10;7.00;98.20
306;DHT22;137;48.578;9.180;2022-11-20T18:54:37;6.90;98.20
306;DHT22;137;48.578;9.180;2022-11-20T18:57:06;6.90;98.20
306;DHT22;137;48.578;9.180;2022-11-20T18:59:37;6.90;98.20
306;DHT22;137;48.578;9.180;2022-11-20T19:02:07;6.80;98.20
306;DHT22;137;48.578;9.180;2022-11-20T19:04:34;6.80;98.20
306;DHT22;137;48.578;9.180;2022-11-20T19:07:01;6.80;98.20
306;DHT22;137;48.578;9.180;2022-11-20T19:09:28;6.80;98.20
306;DHT22;137;48.578;9.180;2022-11-20T19:11:56;6.70;98.20
306;DHT22;137;48.578;9.180;2022-11-20T19:14:24;6.60;98.20
306;DHT22;137;48.578;9.180;2022-11-20T19:16:53;6.50;98.20
306;DHT22;137;48.578;9.180;2022-11-20T19:19:20;6.40;98.20
306;DHT22;137;48.578;9.180;2022-11-20T19:21:49;6.30;98.20
306;DHT22;137;48.578;9.180;2022-11-20T19:24:16;6.20;98.20
306;DHT22;137;48.578;9.180;2022-11-20T19:26:44;6.10;98.20
306;DHT22;137;48.578;9.180;2022-11-20T19:29:14;6.00;98.20
306;DHT22;137;48.578;9.180;2022-11-20T19:31:42;5.90;98.20
306;DHT22;137;48.578;9.180;2022-11-20T19:34:11;5.80;98.20
306;DHT22;137;48.578;9.180;2022-11-20T19:36:40;5.70;98.20
306;DHT22;137;48.578;9.180;2022-11-20T19:39:10;5.60;98.20
306;DHT22;137;48.578;9.180;2022-11-20T19:41:42;5.70;98.20
306;DHT22;137;48.578;9.180;2022-11-20T19:44:23;5.70;98.20
306;DHT22;137;48.578;9.180;2022-11-20T19:47:39;5.70;98.20
306;DHT22;137;48.578;9.180;2022-11-20T19:50:37;5.70;98.20
306;DHT22;137;48.578;9.180;2022-11-20T19:53:29;5.70;98.20
306;DHT22;137;48.578;9.180;2022-11-20T19:56:11;5.70;98.20
306;DHT22;137;48.578;9.180;2022-11-20T19:58:53;5.70;98.20
306;DHT22;137;48.578;9.180;2022-11-20T20:01:53;5.60;98.20
306;DHT22;137;48.578;9.180;2022-11-20T20:59:06;5.40;98.20
306;DHT22;137;48.578;9.180;2022-11-20T21:01:33;5.30;98.20
306;DHT22;137;48.578;9.180;2022-11-20T21:04:00;5.20;98.20
306;DHT22;137;48.578;9.180;2022-11-20T21:06:27;5.20;98.20
306;DHT22;137;48.578;9.180;2022-11-20T21:08:53;5.20;98.20
306;DHT22;137;48.578;9.180;2022-11-20T21:11:24;5.20;98.20
306;DHT22;137;48.578;9.180;2022-11-20T21:13:50;5.20;98.20
306;DHT22;137;48.578;9.180;2022-11-20T21:16:19;5.20;98.20
306;DHT22;137;48.578;9.180;2022-11-20T21:18:47;5.20;98.20
306;DHT22;137;48.578;9.180;2022-11-20T21:21:15;5.20;98.20
306;DHT22;137;48.578;9.180;2022-11-20T21:23:59;5.10;98.20
306;DHT22;137;48.578;9.180;2022-11-20T21:26:26;5.10;98.20
306;DHT22;137;48.578;9.180;2022-11-20T21:28:55;5.00;98.20
306;DHT22;137;48.578;9.180;2022-11-20T21:31:24;4.90;98.20
306;DHT22;137;48.578;9.180;2022-11-20T21:33:53;4.80;98.20
306;DHT22;137;48.578;9.180;2022-11-20T21:36:22;4.80;98.20
306;DHT22;137;48.578;9.180;2022-11-20T21:38:50;4.80;98.20
306;DHT22;137;48.578;9.180;2022-11-20T21:41:17;4.70;98.20
306;DHT22;137;48.578;9.180;2022-11-20T21:43:44;4.70;98.20
306;DHT22;137;48.578;9.180;2022-11-20T21:46:12;4.60;98.20
306;DHT22;137;48.578;9.180;2022-11-20T21:48:42;4.50;98.20
306;DHT22;137;48.578;9.180;2022-11-20T21:51:10;4.50;98.20
306;DHT22;137;48.578;9.180;2022-11-20T21:53:38;4.60;98.20
306;DHT22;137;48.578;9.180;2022-11-20T21:56:06;4.60;98.20
306;DHT22;137;48.578;9.180;2022-11-20T21:58:34;4.60;98.20
306;DHT22;137;48.578;9.180;2022-11-20T22:01:07;4.60;98.20
306;DHT22;137;48.578;9.180;2022-11-20T22:03:34;4.70;98.20
306;DHT22;137;48.578;9.180;2022-11-20T22:06:02;4.80;98.20
306;DHT22;137;48.578;9.180;2022-11-20T22:08:30;4.80;98.20
306;DHT22;137;48.578;9.180;2022-11-20T22:10:59;4.90;98.20
306;DHT22;137;48.578;9.180;2022-11-20T22:13:26;4.90;98.20
306;DHT22;137;48.578;9.180;2022-11-20T22:16:11;4.90;98.20
306;DHT22;137;48.578;9.180;2022-11-20T22:18:41;4.90;98.20
306;DHT22;137;48.578;9.180;2022-11-20T22:21:11;4.90;98.20
306;DHT22;137;48.578;9.180;2022-11-20T22:23:38;4.90;98.20
306;DHT22;137;48.578;9.180;2022-11-20T22:26:07;5.00;98.20
306;DHT22;137;48.578;9.180;2022-11-20T22:28:34;5.00;98.20
306;DHT22;137;48.578;9.180;2022-11-20T22:31:03;4.90;98.20
306;DHT22;137;48.578;9.180;2022-11-20T22:33:31;4.90;98.20
306;DHT22;137;48.578;9.180;2022-11-20T22:36:02;4.90;98.20
306;DHT22;137;48.578;9.180;2022-11-20T22:38:30;5.00;98.20
306;DHT22;137;48.578;9.180;2022-11-20T22:41:01;5.00;98.20
306;DHT22;137;48.578;9.180;2022-11-20T22:43:28;5.10;98.20
306;DHT22;137;48.578;9.180;2022-11-20T22:46:02;5.00;98.20
306;DHT22;137;48.578;9.180;2022-11-20T22:48:30;5.00;98.20
306;DHT22;137;48.578;9.180;2022-11-20T22:51:01;4.90;98.20
306;DHT22;137;48.578;9.180;2022-11-20T22:53:29;4.90;98.20
306;DHT22;137;48.578;9.180;2022-11-20T22:55:56;4.90;98.20
306;DHT22;137;48.578;9.180;2022-11-20T22:58:23;4.90;98.20
306;DHT22;137;48.578;9.180;2022-11-20T23:00:50;4.90;98.20